createdAt,value
2019-04-21T04:02:35.146Z,1018.17
2019-04-21T04:05:29.832Z,1018.16
2019-04-21T04:07:22.921Z,1018.16
2019-04-21T04:08:23.091Z,1018.17
2019-04-21T04:10:08.369Z,1018.18
2019-04-21T04:11:12.060Z,1018.20
2019-04-21T04:12:57.680Z,1018.14
2019-04-21T04:15:56.583Z,1018.21
2019-04-21T04:18:53.249Z,1018.18
2019-04-21T04:21:41.500Z,1018.16
2019-04-21T04:22:45.513Z,1018.11
2019-04-21T04:25:27.861Z,1018.17
2019-04-21T04:28:33.115Z,1018.21
2019-04-21T04:30:25.344Z,1018.19
2019-04-21T04:31:25.442Z,1018.20
2019-04-21T04:33:08.029Z,1018.18
2019-04-21T04:37:05.423Z,1018.15
2019-04-21T04:39:02.729Z,1018.18
2019-04-21T04:40:00.582Z,1018.13
2019-04-21T04:41:53.314Z,1018.14
2019-04-21T04:45:41.719Z,1018.19
2019-04-21T04:48:28.038Z,1018.19
2019-04-21T04:50:29.966Z,1018.20
2019-04-21T04:51:36.485Z,1018.22
2019-04-21T04:53:20.332Z,1018.21
2019-04-21T04:54:21.745Z,1018.17
2019-04-21T04:56:12.485Z,1018.21
2019-04-21T04:57:21.780Z,1018.22
2019-04-21T05:00:15.467Z,1018.23
2019-04-21T05:02:02.368Z,1018.18
2019-04-21T05:04:59.002Z,1018.15
2019-04-21T05:05:49.671Z,1018.15
2019-04-21T05:07:55.417Z,1018.14
2019-04-21T05:08:56.021Z,1018.16
2019-04-21T05:10:57.388Z,1018.10
2019-04-21T05:13:21.885Z,1018.13
2019-04-21T05:14:21.277Z,1018.09
2019-04-21T05:16:32.019Z,1018.13
2019-04-21T05:17:30.930Z,1018.10
2019-04-21T05:19:22.889Z,1018.08
2019-04-21T05:22:03.504Z,1018.07
2019-04-21T05:22:59.755Z,1018.07
2019-04-21T05:24:44.011Z,1018.01
2019-04-21T05:25:41.549Z,1018.00
2019-04-21T05:27:34.678Z,1018.01
2019-04-21T05:28:32.691Z,1018.04
2019-04-21T05:30:47.648Z,1018.02
2019-04-21T05:31:38.813Z,1018.01
2019-04-21T05:33:26.973Z,1017.98
2019-04-21T05:34:27.610Z,1018.04
2019-04-21T05:36:20.527Z,1018.01
2019-04-21T05:37:23.263Z,1018.02
2019-04-21T05:39:10.653Z,1018.03
2019-04-21T05:40:07.536Z,1018.07
2019-04-21T05:41:53.753Z,1018.03
2019-04-21T05:43:03.388Z,1018.07
2019-04-21T05:45:01.615Z,1018.03
2019-04-21T05:46:02.621Z,1018.01
2019-04-21T05:47:57.584Z,1018.09
2019-04-21T05:48:48.374Z,1018.08
2019-04-21T05:50:38.122Z,1018.06
2019-04-21T05:51:41.103Z,1018.12
2019-04-21T05:53:40.521Z,1018.07
2019-04-21T05:56:31.847Z,1018.10
2019-04-21T05:57:32.242Z,1018.05
2019-04-21T05:59:22.042Z,1018.03
2019-04-21T06:00:35.225Z,1018.07
2019-04-21T06:03:15.124Z,1018.07
2019-04-21T06:06:14.106Z,1018.02
2019-04-21T06:08:02.360Z,1018.00
2019-04-21T06:09:04.961Z,1018.00
2019-04-21T06:10:52.393Z,1017.94
2019-04-21T06:11:51.251Z,1017.92
2019-04-21T06:13:48.805Z,1017.94
2019-04-21T06:14:48.428Z,1017.92
2019-04-21T06:16:43.005Z,1017.91
2019-04-21T06:19:36.579Z,1017.90
2019-04-21T06:20:30.693Z,1017.89
2019-04-21T06:22:22.423Z,1017.88
2019-04-21T06:23:28.697Z,1017.86
2019-04-21T06:26:44.936Z,1017.87
2019-04-21T06:28:14.424Z,1017.89
2019-04-21T06:29:04.253Z,1017.90
2019-04-21T06:33:53.748Z,1017.87
2019-04-21T06:36:49.590Z,1017.79
2019-04-21T06:39:54.122Z,1017.80
2019-04-21T06:40:42.496Z,1017.82
2019-04-21T06:42:27.033Z,1017.84
2019-04-21T06:43:37.743Z,1017.84
2019-04-21T06:45:27.581Z,1017.86
2019-04-21T06:46:30.196Z,1017.90
2019-04-21T06:48:21.013Z,1017.95
2019-04-21T06:49:31.359Z,1018.30
2019-04-21T06:51:10.718Z,1018.65
2019-04-21T06:52:18.017Z,1018.71
2019-04-21T06:55:12.558Z,1018.69
2019-04-21T06:56:51.282Z,1018.68
2019-04-21T06:57:55.891Z,1018.66
2019-04-21T06:59:43.387Z,1018.67
2019-04-21T07:00:43.223Z,1018.71
2019-04-21T07:03:45.901Z,1018.69
2019-04-21T07:05:34.638Z,1018.74
2019-04-21T07:06:36.287Z,1018.75
2019-04-21T07:09:25.412Z,1018.79
2019-04-21T07:11:15.312Z,1019.05
2019-04-21T07:12:12.578Z,1019.13
2019-04-21T07:15:03.311Z,1019.02
2019-04-21T07:17:06.792Z,1018.99
2019-04-21T07:17:59.444Z,1019.00
2019-04-21T07:19:55.959Z,1019.07
2019-04-21T07:20:54.929Z,1018.95
2019-04-21T07:22:50.563Z,1018.91
2019-04-21T07:23:47.295Z,1018.91
2019-04-21T07:25:38.802Z,1018.78
2019-04-21T07:26:36.872Z,1018.77
2019-04-21T07:28:36.257Z,1018.76
2019-04-21T07:29:34.768Z,1018.75
2019-04-21T07:31:25.422Z,1018.72
2019-04-21T07:32:22.311Z,1018.73
2019-04-21T07:34:21.466Z,1018.81
2019-04-21T07:35:17.469Z,1018.83
2019-04-21T07:37:06.172Z,1018.80
2019-04-21T07:38:05.616Z,1018.84
2019-04-21T07:40:03.717Z,1018.84
2019-04-21T07:40:53.411Z,1018.78
2019-04-21T07:42:49.818Z,1018.81
2019-04-21T07:43:49.036Z,1018.77
2019-04-21T07:45:40.121Z,1018.76
2019-04-21T07:46:38.499Z,1018.78
2019-04-21T07:48:37.594Z,1018.78
2019-04-21T07:49:41.573Z,1018.76
2019-04-21T07:51:33.995Z,1018.82
2019-04-21T07:52:35.045Z,1018.84
2019-04-21T07:54:33.718Z,1018.82
2019-04-21T07:57:11.585Z,1018.83
2019-04-21T07:58:14.918Z,1018.76
2019-04-21T08:01:12.457Z,1018.78
2019-04-21T08:03:00.527Z,1018.74
2019-04-21T08:03:59.433Z,1018.81
2019-04-21T08:05:58.861Z,1018.76
2019-04-21T08:06:53.654Z,1018.77
2019-04-21T08:08:49.096Z,1018.76
2019-04-21T08:09:47.170Z,1018.80
2019-04-21T08:11:36.776Z,1018.55
2019-04-21T08:12:37.943Z,1018.30
2019-04-21T08:14:36.915Z,1017.98
2019-04-21T08:15:44.637Z,1017.94
2019-04-21T08:17:24.138Z,1017.89
2019-04-21T08:18:26.995Z,1017.88
2019-04-21T08:20:15.686Z,1017.73
2019-04-21T08:21:15.282Z,1017.67
2019-04-21T08:23:13.450Z,1017.59
2019-04-21T08:24:10.512Z,1017.49
2019-04-21T08:27:05.043Z,1017.40
2019-04-21T08:29:06.499Z,1017.34
2019-04-21T08:29:51.591Z,1017.32
2019-04-21T08:34:48.532Z,1017.22
2019-04-21T08:37:31.414Z,1017.17
2019-04-21T08:38:38.850Z,1017.13
2019-04-21T08:40:31.553Z,1017.10
2019-04-21T08:41:27.759Z,1017.10
2019-04-21T08:43:21.801Z,1017.10
2019-04-21T08:44:20.942Z,1017.09
2019-04-21T08:46:16.942Z,1017.10
2019-04-21T08:47:12.904Z,1017.12
2019-04-21T08:49:02.590Z,1017.11
2019-04-21T08:50:02.151Z,1017.09
2019-04-21T08:52:05.171Z,1017.02
2019-04-21T08:52:56.628Z,1017.06
2019-04-21T08:54:52.131Z,1017.00
2019-04-21T08:55:49.526Z,1017.02
2019-04-21T08:57:50.841Z,1017.00
2019-04-21T08:58:47.811Z,1016.99
2019-04-21T09:00:36.874Z,1017.02
2019-04-21T09:01:36.846Z,1016.98
2019-04-21T09:03:32.969Z,1016.95
2019-04-21T09:04:24.461Z,1016.95
2019-04-21T09:06:29.097Z,1016.92
2019-04-21T09:07:21.329Z,1016.91
2019-04-21T09:09:10.970Z,1016.87
2019-04-21T09:10:09.695Z,1016.87
2019-04-21T09:12:08.686Z,1016.86
2019-04-21T09:13:01.395Z,1016.89
2019-04-21T09:14:58.062Z,1016.82
2019-04-21T09:15:56.849Z,1016.80
2019-04-21T09:17:41.015Z,1016.78
2019-04-21T09:18:43.344Z,1016.81
2019-04-21T09:20:47.428Z,1016.80
2019-04-21T09:21:46.947Z,1016.75
2019-04-21T09:23:36.391Z,1016.77
2019-04-21T09:24:33.071Z,1016.75
2019-04-21T09:26:28.348Z,1016.69
2019-04-21T09:27:20.752Z,1016.70
2019-04-21T09:29:13.637Z,1016.64
2019-04-21T09:30:03.508Z,1016.66
2019-04-21T09:31:55.847Z,1016.64
2019-04-21T09:32:54.846Z,1016.63
2019-04-21T09:34:47.299Z,1016.57
2019-04-21T09:35:50.117Z,1016.63
2019-04-21T09:37:44.398Z,1016.56
2019-04-21T09:38:41.885Z,1016.60
2019-04-21T09:40:36.244Z,1016.56
2019-04-21T09:41:34.258Z,1016.52
2019-04-21T09:43:30.777Z,1016.50
2019-04-21T09:44:30.204Z,1016.48
2019-04-21T09:46:16.161Z,1016.41
2019-04-21T09:47:19.020Z,1016.42
2019-04-21T09:49:12.514Z,1016.42
2019-04-21T09:50:08.515Z,1016.44
2019-04-21T09:52:02.081Z,1016.39
2019-04-21T09:53:12.916Z,1016.41
2019-04-21T09:55:03.995Z,1016.40
2019-04-21T09:55:58.117Z,1016.38
2019-04-21T09:57:52.142Z,1016.36
2019-04-21T09:58:49.741Z,1016.31
2019-04-21T10:00:47.628Z,1016.34
2019-04-21T10:01:52.658Z,1016.30
2019-04-21T10:03:39.659Z,1016.27
2019-04-21T10:04:31.136Z,1016.30
2019-04-21T10:06:23.760Z,1016.27
2019-04-21T10:07:28.194Z,1016.26
2019-04-21T10:09:19.441Z,1016.22
2019-04-21T10:10:17.142Z,1016.19
2019-04-21T10:12:09.721Z,1016.18
2019-04-21T10:13:08.555Z,1016.22
2019-04-21T10:15:01.889Z,1016.14
2019-04-21T10:16:01.138Z,1016.20
2019-04-21T10:17:54.082Z,1016.16
2019-04-21T10:18:54.711Z,1016.17
2019-04-21T10:20:46.984Z,1016.11
2019-04-21T10:21:47.846Z,1016.08
2019-04-21T10:23:39.607Z,1016.00
2019-04-21T10:24:40.495Z,1016.02
2019-04-21T10:26:33.305Z,1016.00
2019-04-21T10:27:32.056Z,1015.94
2019-04-21T10:29:27.881Z,1015.93
2019-04-21T10:30:24.784Z,1015.90
2019-04-21T10:32:21.351Z,1015.90
2019-04-21T10:33:18.479Z,1015.86
2019-04-21T10:35:10.911Z,1015.82
2019-04-21T10:36:10.958Z,1015.89
2019-04-21T10:38:14.885Z,1015.83
2019-04-21T10:39:02.473Z,1015.83
2019-04-21T10:40:55.099Z,1015.76
2019-04-21T10:41:55.268Z,1015.72
2019-04-21T10:43:49.240Z,1015.72
2019-04-21T10:44:47.563Z,1015.68
2019-04-21T10:46:40.604Z,1015.61
2019-04-21T10:47:41.052Z,1015.64
2019-04-21T10:49:32.831Z,1015.62
2019-04-21T10:50:32.736Z,1015.62
2019-04-21T10:52:27.904Z,1015.54
2019-04-21T10:53:25.347Z,1015.61
2019-04-21T10:55:36.748Z,1015.54
2019-04-21T10:56:26.961Z,1015.56
2019-04-21T10:58:11.029Z,1015.51
2019-04-21T10:59:12.015Z,1015.46
2019-04-21T11:01:04.185Z,1015.49
2019-04-21T11:02:03.298Z,1015.46
2019-04-21T11:03:55.915Z,1015.39
2019-04-21T11:04:56.667Z,1015.42
2019-04-21T11:06:48.646Z,1015.35
2019-04-21T11:08:00.894Z,1015.33
2019-04-21T11:09:42.309Z,1015.34
2019-04-21T11:10:41.259Z,1015.33
2019-04-21T11:12:36.488Z,1015.31
2019-04-21T11:13:34.729Z,1015.35
2019-04-21T11:15:27.438Z,1015.32
2019-04-21T11:16:26.949Z,1015.31
2019-04-21T11:18:19.829Z,1015.30
2019-04-21T11:19:19.931Z,1015.28
2019-04-21T11:21:13.100Z,1015.21
2019-04-21T11:22:12.648Z,1015.17
2019-04-21T11:24:04.337Z,1015.20
2019-04-21T11:25:04.920Z,1015.19
2019-04-21T11:26:58.151Z,1015.15
2019-04-21T11:27:56.882Z,1015.21
2019-04-21T11:29:49.618Z,1015.12
2019-04-21T11:30:50.879Z,1015.15
2019-04-21T11:32:44.954Z,1015.12
2019-04-21T11:33:43.047Z,1015.08
2019-04-21T11:35:35.272Z,1015.05
2019-04-21T11:36:35.291Z,1015.02
2019-04-21T11:38:30.493Z,1015.02
2019-04-21T11:39:37.595Z,1015.02
2019-04-21T11:41:21.528Z,1015.02
2019-04-21T11:42:20.021Z,1015.04
2019-04-21T11:44:14.015Z,1014.97
2019-04-21T11:45:12.647Z,1014.96
2019-04-21T11:47:06.588Z,1014.91
2019-04-21T11:48:06.132Z,1014.91
2019-04-21T11:49:59.036Z,1014.89
2019-04-21T11:50:59.150Z,1014.83
2019-04-21T11:52:50.534Z,1014.86
2019-04-21T11:53:50.768Z,1014.88
2019-04-21T11:55:46.684Z,1014.82
2019-04-21T11:56:43.320Z,1014.77
2019-04-21T11:58:36.091Z,1014.81
2019-04-21T11:59:35.779Z,1014.85
2019-04-21T12:01:29.625Z,1014.77
2019-04-21T12:02:28.276Z,1014.77
2019-04-21T12:04:21.336Z,1014.81
2019-04-21T12:05:21.391Z,1014.77
2019-04-21T12:07:13.582Z,1014.70
2019-04-21T12:08:24.518Z,1014.68
2019-04-21T12:10:06.196Z,1014.66
2019-04-21T12:11:07.296Z,1014.62
2019-04-21T12:12:59.246Z,1014.64
2019-04-21T12:13:58.668Z,1014.60
2019-04-21T12:15:52.713Z,1014.55
2019-04-21T12:16:51.245Z,1014.53
2019-04-21T12:18:45.140Z,1014.51
2019-04-21T12:19:44.741Z,1014.56
2019-04-21T12:21:50.498Z,1014.53
2019-04-21T12:22:37.397Z,1014.50
2019-04-21T12:24:31.282Z,1014.51
2019-04-21T12:25:29.233Z,1014.51
2019-04-21T12:27:22.269Z,1014.45
2019-04-21T12:28:21.878Z,1014.45
2019-04-21T12:30:15.537Z,1014.38
2019-04-21T12:31:14.211Z,1014.37
2019-04-21T12:33:07.731Z,1014.42
2019-04-21T12:34:07.854Z,1014.41
2019-04-21T12:35:59.978Z,1014.37
2019-04-21T12:36:59.366Z,1014.31
2019-04-21T12:38:57.726Z,1014.24
2019-04-21T12:39:52.551Z,1014.27
2019-04-21T12:41:44.696Z,1014.26
2019-04-21T12:42:45.504Z,1014.19
2019-04-21T12:44:37.297Z,1014.14
2019-04-21T12:45:37.831Z,1014.11
2019-04-21T12:47:30.217Z,1014.09
2019-04-21T12:48:29.769Z,1014.09
2019-04-21T12:50:23.608Z,1014.08
2019-04-21T12:51:23.836Z,1014.09
2019-04-21T12:53:15.996Z,1013.95
2019-04-21T12:54:15.475Z,1013.96
2019-04-21T12:56:07.600Z,1013.98
2019-04-21T12:57:07.714Z,1013.95
2019-04-21T12:59:01.463Z,1013.96
2019-04-21T13:00:00.493Z,1013.96
2019-04-21T13:01:52.862Z,1013.95
2019-04-21T13:02:53.889Z,1013.95
2019-04-21T13:04:46.126Z,1013.84
2019-04-21T13:05:45.395Z,1013.83
2019-04-21T13:07:37.920Z,1013.79
2019-04-21T13:08:45.629Z,1013.78
2019-04-21T13:10:30.676Z,1013.72
2019-04-21T13:11:30.964Z,1013.75
2019-04-21T13:13:23.930Z,1013.72
2019-04-21T13:14:24.047Z,1013.68
2019-04-21T13:16:15.722Z,1013.62
2019-04-21T13:17:15.610Z,1013.64
2019-04-21T13:19:09.366Z,1013.63
2019-04-21T13:20:09.455Z,1013.62
2019-04-21T13:22:01.589Z,1013.55
2019-04-21T13:23:01.818Z,1013.53
2019-04-21T13:24:53.893Z,1013.50
2019-04-21T13:25:54.118Z,1013.47
2019-04-21T13:27:47.259Z,1013.46
2019-04-21T13:28:45.938Z,1013.46
2019-04-21T13:30:38.636Z,1013.46
2019-04-21T13:31:38.587Z,1013.41
2019-04-21T13:33:31.316Z,1013.42
2019-04-21T13:34:31.787Z,1013.42
2019-04-21T13:36:23.804Z,1013.33
2019-04-21T13:37:23.776Z,1013.37
2019-04-21T13:39:44.686Z,1013.29
2019-04-21T13:40:35.955Z,1013.32
2019-04-21T13:42:17.467Z,1013.21
2019-04-21T13:43:10.750Z,1013.24
2019-04-21T13:45:03.007Z,1013.17
2019-04-21T13:46:01.813Z,1013.10
2019-04-21T13:47:54.731Z,1013.12
2019-04-21T13:48:54.823Z,1013.09
2019-04-21T13:50:49.081Z,1013.10
2019-04-21T13:51:48.035Z,1013.11
2019-04-21T13:53:40.161Z,1013.06
2019-04-21T13:54:40.077Z,1013.08
2019-04-21T13:56:34.337Z,1012.99
2019-04-21T13:57:32.631Z,1012.96
2019-04-21T13:59:26.437Z,1012.88
2019-04-21T14:00:25.316Z,1012.90
2019-04-21T14:02:18.538Z,1012.84
2019-04-21T14:03:21.290Z,1012.84
2019-04-21T14:05:13.405Z,1012.83
2019-04-21T14:06:10.448Z,1012.84
2019-04-21T14:08:03.277Z,1012.82
2019-04-21T14:09:03.192Z,1012.82
2019-04-21T14:10:55.776Z,1012.79
2019-04-21T14:11:56.977Z,1012.78
2019-04-21T14:13:48.442Z,1012.77
2019-04-21T14:14:48.359Z,1012.74
2019-04-21T14:16:42.206Z,1012.75
2019-04-21T14:17:40.874Z,1012.65
2019-04-21T14:19:33.583Z,1012.66
2019-04-21T14:20:33.457Z,1012.62
2019-04-21T14:22:26.425Z,1012.57
2019-04-21T14:23:33.616Z,1012.57
2019-04-21T14:25:19.633Z,1012.53
2019-04-21T14:26:20.296Z,1012.48
2019-04-21T14:28:12.282Z,1012.50
2019-04-21T14:29:12.933Z,1012.50
2019-04-21T14:31:04.447Z,1012.48
2019-04-21T14:32:04.375Z,1012.47
2019-04-21T14:33:58.295Z,1012.41
2019-04-21T14:34:56.921Z,1012.44
2019-04-21T14:36:50.827Z,1012.42
2019-04-21T14:37:50.663Z,1012.44
2019-04-21T14:39:52.817Z,1012.39
2019-04-21T14:40:42.099Z,1012.40
2019-04-21T14:42:36.060Z,1012.37
2019-04-21T14:43:34.705Z,1012.33
2019-04-21T14:45:28.233Z,1012.31
2019-04-21T14:46:27.293Z,1012.25
2019-04-21T14:48:21.209Z,1012.28
2019-04-21T14:49:21.278Z,1012.26
2019-04-21T14:51:13.194Z,1012.25
2019-04-21T14:52:12.928Z,1012.28
2019-04-21T14:54:05.933Z,1012.28
2019-04-21T14:55:05.027Z,1012.23
2019-04-21T14:56:57.747Z,1012.20
2019-04-21T14:57:58.981Z,1012.20
2019-04-21T14:59:51.098Z,1012.19
2019-04-21T15:00:51.060Z,1012.18
2019-04-21T15:02:43.567Z,1012.15
2019-04-21T15:03:43.721Z,1012.18
2019-04-21T15:05:35.621Z,1012.12
2019-04-21T15:06:35.478Z,1012.11
2019-04-21T15:08:28.971Z,1012.14
2019-04-21T15:09:29.256Z,1012.09
2019-04-21T15:11:21.940Z,1012.13
2019-04-21T15:12:20.645Z,1012.10
2019-04-21T15:14:13.817Z,1011.99
2019-04-21T15:15:13.958Z,1012.03
2019-04-21T15:17:07.077Z,1012.02
2019-04-21T15:18:05.825Z,1012.04
2019-04-21T15:20:04.443Z,1012.04
2019-04-21T15:20:59.367Z,1012.05
2019-04-21T15:22:52.441Z,1012.00
2019-04-21T15:23:50.999Z,1011.97
2019-04-21T15:25:43.985Z,1011.94
2019-04-21T15:26:44.291Z,1011.98
2019-04-21T15:28:37.877Z,1011.92
2019-04-21T15:29:36.170Z,1011.92
2019-04-21T15:31:33.885Z,1011.89
2019-04-21T15:32:28.752Z,1011.88
2019-04-21T15:34:23.959Z,1011.83
2019-04-21T15:35:21.447Z,1011.82
2019-04-21T15:37:14.050Z,1011.75
2019-04-21T15:38:14.038Z,1011.75
2019-04-21T15:40:18.132Z,1011.72
2019-04-21T15:41:10.472Z,1011.64
2019-04-21T15:43:00.149Z,1011.65
2019-04-21T15:44:01.266Z,1011.64
2019-04-21T15:45:52.894Z,1011.64
2019-04-21T15:46:52.269Z,1011.62
2019-04-21T15:48:44.756Z,1011.63
2019-04-21T15:49:51.750Z,1011.56
2019-04-21T15:51:38.027Z,1011.54
2019-04-21T15:52:37.860Z,1011.58
2019-04-21T15:54:29.556Z,1011.53
2019-04-21T15:55:30.757Z,1011.47
2019-04-21T15:57:22.158Z,1011.48
2019-04-21T15:58:22.901Z,1011.48
2019-04-21T16:00:14.722Z,1011.51
2019-04-21T16:01:14.625Z,1011.47
2019-04-21T16:03:08.650Z,1011.40
2019-04-21T16:04:07.998Z,1011.45
2019-04-21T16:06:01.300Z,1011.38
2019-04-21T16:06:59.799Z,1011.35
2019-04-21T16:08:54.251Z,1011.36
2019-04-21T16:09:52.528Z,1011.33
2019-04-21T16:11:46.123Z,1011.37
2019-04-21T16:12:45.637Z,1011.31
2019-04-21T16:14:38.642Z,1011.31
2019-04-21T16:15:38.652Z,1011.32
2019-04-21T16:17:30.427Z,1011.28
2019-04-21T16:18:30.159Z,1011.25
2019-04-21T16:20:24.062Z,1011.31
2019-04-21T16:21:24.228Z,1011.30
2019-04-21T16:23:15.956Z,1011.26
2019-04-21T16:24:16.335Z,1011.22
2019-04-21T16:26:08.798Z,1011.26
2019-04-21T16:27:10.611Z,1011.23
2019-04-21T16:29:01.143Z,1011.20
2019-04-21T16:30:01.946Z,1011.16
2019-04-21T16:31:53.711Z,1011.15
2019-04-21T16:32:54.415Z,1011.12
2019-04-21T16:34:53.596Z,1011.10
2019-04-21T16:35:47.502Z,1011.12
2019-04-21T16:37:39.518Z,1011.05
2019-04-21T16:38:39.681Z,1011.11
2019-04-21T16:40:43.271Z,1011.10
2019-04-21T16:41:32.087Z,1011.09
2019-04-21T16:43:24.995Z,1011.10
2019-04-21T16:44:25.311Z,1011.07
2019-04-21T16:46:17.893Z,1011.00
2019-04-21T16:47:17.260Z,1011.04
2019-04-21T16:49:09.666Z,1011.05
2019-04-21T16:50:09.824Z,1011.02
2019-04-21T16:52:02.335Z,1011.02
2019-04-21T16:53:01.827Z,1011.01
2019-04-21T16:54:55.800Z,1011.00
2019-04-21T16:55:55.142Z,1010.99
2019-04-21T16:57:59.443Z,1010.97
2019-04-21T16:58:48.307Z,1010.97
2019-04-21T17:00:46.024Z,1010.94
2019-04-21T17:01:40.662Z,1010.95
2019-04-21T17:03:32.720Z,1010.93
2019-04-21T17:04:32.242Z,1010.89
2019-04-21T17:06:25.030Z,1010.87
2019-04-21T17:07:26.156Z,1010.88
2019-04-21T17:09:18.753Z,1010.78
2019-04-21T17:10:17.395Z,1010.80
2019-04-21T17:12:14.085Z,1010.89
2019-04-21T17:13:11.318Z,1010.91
2019-04-21T17:15:21.427Z,1010.89
2019-04-21T17:16:31.965Z,1010.92
2019-04-21T17:18:15.067Z,1010.90
2019-04-21T17:19:06.575Z,1010.87
2019-04-21T17:20:53.803Z,1010.85
2019-04-21T17:21:49.771Z,1010.79
2019-04-21T17:23:41.080Z,1010.74
2019-04-21T17:24:42.367Z,1010.76
2019-04-21T17:26:36.206Z,1010.71
2019-04-21T17:27:33.566Z,1010.72
2019-04-21T17:29:26.233Z,1010.69
2019-04-21T17:30:26.492Z,1010.67
2019-04-21T17:32:20.326Z,1010.74
2019-04-21T17:33:21.646Z,1010.71
2019-04-21T17:35:12.142Z,1010.64
2019-04-21T17:36:11.484Z,1010.65
2019-04-21T17:38:04.044Z,1010.65
2019-04-21T17:39:04.775Z,1010.66
2019-04-21T17:41:09.430Z,1010.61
2019-04-21T17:42:11.785Z,1010.58
2019-04-21T17:43:49.941Z,1010.63
2019-04-21T17:44:49.058Z,1010.62
2019-04-21T17:46:48.585Z,1010.61
2019-04-21T17:47:49.895Z,1010.58
2019-04-21T17:49:34.857Z,1010.59
2019-04-21T17:50:35.472Z,1010.59
2019-04-21T17:52:36.602Z,1010.59
2019-04-21T17:53:35.766Z,1010.61
2019-04-21T17:55:26.197Z,1010.57
2019-04-21T17:56:42.755Z,1010.58
2019-04-21T17:58:27.982Z,1010.57
2019-04-21T17:59:44.788Z,1010.59
2019-04-21T18:01:26.525Z,1010.58
2019-04-21T18:02:31.071Z,1010.57
2019-04-21T18:04:18.805Z,1010.56
2019-04-21T18:05:23.761Z,1010.55
2019-04-21T18:07:02.364Z,1010.57
2019-04-21T18:08:11.074Z,1010.52
2019-04-21T18:10:12.144Z,1010.57
2019-04-21T18:10:56.547Z,1010.56
2019-04-21T18:12:45.757Z,1010.52
2019-04-21T18:13:34.964Z,1010.64
2019-04-21T18:15:42.785Z,1010.63
2019-04-21T18:16:35.880Z,1010.64
2019-04-21T18:18:20.990Z,1010.63
2019-04-21T18:19:26.776Z,1010.66
2019-04-21T18:21:14.518Z,1010.62
2019-04-21T18:22:14.634Z,1010.61
2019-04-21T18:24:14.653Z,1010.62
2019-04-21T18:25:11.809Z,1010.67
2019-04-21T18:27:02.494Z,1010.65
2019-04-21T18:27:58.925Z,1010.66
2019-04-21T18:29:52.517Z,1010.67
2019-04-21T18:30:52.317Z,1010.67
2019-04-21T18:32:44.273Z,1010.69
2019-04-21T18:33:45.754Z,1010.69
2019-04-21T18:35:43.046Z,1010.68
2019-04-21T18:36:39.548Z,1010.68
2019-04-21T18:38:44.223Z,1010.64
2019-04-21T18:39:45.330Z,1010.70
2019-04-21T18:41:21.946Z,1010.69
2019-04-21T18:42:37.494Z,1010.70
2019-04-21T18:44:43.266Z,1010.76
2019-04-21T18:45:55.413Z,1010.74
2019-04-21T18:47:28.984Z,1010.82
2019-04-21T18:48:18.974Z,1010.79
2019-04-21T18:50:01.841Z,1010.80
2019-04-21T18:51:06.333Z,1010.80
2019-04-21T18:53:05.000Z,1010.79
2019-04-21T18:54:14.947Z,1010.82
2019-04-21T18:55:49.622Z,1010.85
2019-04-21T18:56:59.132Z,1010.84
2019-04-21T18:58:38.299Z,1010.82
2019-04-21T18:59:40.268Z,1010.86
2019-04-21T19:01:33.317Z,1010.84
2019-04-21T19:02:38.462Z,1010.86
2019-04-21T19:04:28.563Z,1010.85
2019-04-21T19:05:26.333Z,1010.88
2019-04-21T19:07:27.556Z,1010.92
2019-04-21T19:08:31.344Z,1010.93
2019-04-21T19:10:26.698Z,1010.91
2019-04-21T19:11:31.263Z,1010.92
2019-04-21T19:13:41.904Z,1010.93
2019-04-21T19:16:31.342Z,1010.93
2019-04-21T19:17:38.171Z,1010.91
2019-04-21T19:19:31.526Z,1010.91
2019-04-21T19:20:18.282Z,1010.87
2019-04-21T19:22:00.674Z,1010.89
2019-04-21T19:22:52.438Z,1010.92
2019-04-21T19:24:54.920Z,1010.86
2019-04-21T19:25:55.161Z,1010.88
2019-04-21T19:27:45.168Z,1010.88
2019-04-21T19:28:50.216Z,1010.90
2019-04-21T19:31:38.266Z,1010.84
2019-04-21T19:33:27.425Z,1010.85
2019-04-21T19:34:19.760Z,1010.82
2019-04-21T19:36:03.470Z,1010.78
2019-04-21T19:37:10.829Z,1010.79
2019-04-21T19:39:06.277Z,1010.79
2019-04-21T19:40:09.556Z,1010.79
2019-04-21T19:42:00.405Z,1010.76
2019-04-21T19:43:00.384Z,1010.77
2019-04-21T19:44:56.796Z,1010.76
2019-04-21T19:45:54.126Z,1010.73
2019-04-21T19:47:52.770Z,1010.76
2019-04-21T19:48:55.287Z,1010.79
2019-04-21T19:50:47.067Z,1010.78
2019-04-21T19:51:37.903Z,1010.78
2019-04-21T19:53:32.993Z,1010.75
2019-04-21T19:54:25.086Z,1010.76
2019-04-21T19:56:12.038Z,1010.79
2019-04-21T19:57:11.248Z,1010.74
2019-04-21T19:59:03.675Z,1010.72
2019-04-21T20:00:06.045Z,1010.72
2019-04-21T20:01:58.234Z,1010.68
2019-04-21T20:02:56.718Z,1010.69
2019-04-21T20:04:57.654Z,1010.68
2019-04-21T20:05:58.137Z,1010.68
2019-04-21T20:08:01.650Z,1010.68
2019-04-21T20:08:58.194Z,1010.64
2019-04-21T20:10:55.034Z,1010.68
2019-04-21T20:11:52.546Z,1010.68
2019-04-21T20:14:30.768Z,1010.64
2019-04-21T20:16:41.302Z,1010.62
2019-04-21T20:17:40.807Z,1010.61
2019-04-21T20:19:13.882Z,1010.56
2019-04-21T20:20:13.271Z,1010.57
2019-04-21T20:22:05.327Z,1010.54
2019-04-21T20:23:08.881Z,1010.56
2019-04-21T20:25:04.550Z,1010.53
2019-04-21T20:26:02.307Z,1010.52
2019-04-21T20:28:00.804Z,1010.49
2019-04-21T20:29:02.447Z,1010.47
2019-04-21T20:31:03.746Z,1010.44
2019-04-21T20:31:54.189Z,1010.41
2019-04-21T20:34:56.191Z,1010.39
2019-04-21T20:36:48.911Z,1010.39
2019-04-21T20:37:41.889Z,1010.43
2019-04-21T20:39:26.573Z,1010.36
2019-04-21T20:40:30.834Z,1010.36
2019-04-21T20:42:25.337Z,1010.36
2019-04-21T20:43:32.120Z,1010.39
2019-04-21T20:46:26.910Z,1010.38
2019-04-21T20:48:09.402Z,1010.32
2019-04-21T20:49:06.970Z,1010.35
2019-04-21T20:51:14.568Z,1010.29
2019-04-21T20:52:09.828Z,1010.34
2019-04-21T20:53:53.680Z,1010.36
2019-04-21T20:54:59.023Z,1010.37
2019-04-21T20:56:58.402Z,1010.34
2019-04-21T20:57:48.978Z,1010.36
2019-04-21T20:59:42.939Z,1010.36
2019-04-21T21:00:56.147Z,1010.38
2019-04-21T21:02:46.910Z,1010.33
2019-04-21T21:03:42.249Z,1010.35
2019-04-21T21:05:27.329Z,1010.39
2019-04-21T21:06:26.234Z,1010.38
2019-04-21T21:08:30.910Z,1010.35
2019-04-21T21:09:18.210Z,1010.36
2019-04-21T21:11:20.889Z,1010.34
2019-04-21T21:12:34.277Z,1010.33
2019-04-21T21:15:00.101Z,1010.31
2019-04-21T21:17:03.663Z,1010.33
2019-04-21T21:18:06.284Z,1010.34
2019-04-21T21:20:02.686Z,1010.32
2019-04-21T21:20:55.317Z,1010.37
2019-04-21T21:22:42.383Z,1010.36
2019-04-21T21:23:47.753Z,1010.34
2019-04-21T21:25:49.705Z,1010.35
2019-04-21T21:26:36.743Z,1010.31
2019-04-21T21:28:26.718Z,1010.31
2019-04-21T21:29:45.775Z,1010.27
2019-04-21T21:31:25.285Z,1010.30
2019-04-21T21:32:27.320Z,1010.32
2019-04-21T21:34:25.782Z,1010.32
2019-04-21T21:35:13.464Z,1010.28
2019-04-21T21:37:21.216Z,1010.27
2019-04-21T21:38:13.225Z,1010.32
2019-04-21T21:40:04.350Z,1010.30
2019-04-21T21:40:53.056Z,1010.27
2019-04-21T21:42:43.439Z,1010.30
2019-04-21T21:43:39.344Z,1010.27
2019-04-21T21:45:39.392Z,1010.31
2019-04-21T21:46:45.612Z,1010.33
2019-04-21T21:48:38.259Z,1010.31
2019-04-21T21:49:36.889Z,1010.29
2019-04-21T21:51:26.944Z,1010.29
2019-04-21T21:52:25.906Z,1010.26
2019-04-21T21:54:09.628Z,1010.26
2019-04-21T21:55:09.717Z,1010.21
2019-04-21T21:57:01.044Z,1010.18
2019-04-21T21:58:03.470Z,1010.21
2019-04-21T21:59:58.923Z,1010.16
